Westland, MI (48185)

5:43 PM EDT on June 02, 2015 (GMT -0400)
south west Livonia | | Change Station
CLOSE
Current Station
Personal Weather Station
Location: Livonia, MI
Elevation: 676 ft
Nearby Weather Stations

Elev 676 ft 42.36 °N, 83.41 °W | Updated 8 minutes ago

Partly Cloudy
Partly Cloudy
76.5 °F
Feels Like 78 °F
N
3.7
Wind Variable Wind from ENE

Today
High -- | Low -- °F
--% Chance of Precip.
Yesterday
High -- | Low -- °F
Precip. -- in
5:59 AM 9:04 PM
Full, 100% visible
Pressure 30.14 in
Visibility 10.0 miles
Clouds Scattered Clouds 4000 ft
Scattered Clouds 24000 ft
Heat Index 78 °F
Dew Point 49 °F
Humidity 38%
Rainfall 0.00 in
Snow Depth Not available.
UV 5 out of 12
Pollen 5.90 out of 12
Air Quality Not available.
Flu Activity Sporadic
METAR KDTW 022053Z 15010KT 10SM SCT040 SCT240 21/11 A3014 RMK AO2 SLP207 T02060111 56017

More Conditions Fewer Conditions

Pressure 30.14 in
Visibility 10.0 miles
Clouds Scattered Clouds 4000 ft
Scattered Clouds 24000 ft
Heat Index 78 °F
Dew Point 49 °F
Humidity 38%
Rainfall 0.00 in
Snow Depth Not available.
UV 5 out of 12
Pollen 5.90 out of 12
Air Quality Not available.
Flu Activity Sporadic
METAR KDTW 022053Z 15010KT 10SM SCT040 SCT240 21/11 A3014 RMK AO2 SLP207 T02060111 56017

More Conditions Fewer Conditions

10-Day Weather Forecast

×

Almanac

Astronomy

Jun. 02, 2015 Rise Set
Actual Time
Civil Twilight
Nautical Twilight
Astronomical Twilight
Moon
Length of Visible Light
Length of Day
Tomorrow will be .
, % of the Moon is Illuminated

Today's Extremes

State Highs State Lows

Community

WunderPhotos

Upload Photos

1,826,032 photos uploaded!

WunderBlogs® & News

Nearby

Air Quality

  Air Quality AQ Index Pollutant
Not available.

Snow Depth

Station Depth Elevation

Earthquake Activity

City Distance Mag. Time & Date
Minimum magnitude displayed is 2.5.

Coastal Water Temperatures

Place Temperature

Stations

Nearby Weather Stations

Station Location Temp. Windchill Dew Point Humidity Wind Precip. Elev Updated Type